Terrell, TX

1:18 AM CST on February 11, 2016 (GMT -0600)
APRSWXNET | | Change Station
CLOSE
Current Station
Personal Weather Station
Location: Terrell, TX
Elevation: 505 ft
Nearby Weather Stations

Elev 505 ft 32.80 °N, 96.30 °W | Updated 19 minutes ago

Clear
Clear
49 °F
Feels Like 47 °F
N
5
Wind Variable Wind from SSW
Gusts 7.0 mph

Today
High -- | Low -- °F
--% Chance of Precip.
Yesterday
High -- | Low -- °F
Precip. -- in
Pressure 30.05 in
Visibility 10.0 miles
Clouds Clear
Windchill 47 °F
Dew Point 38 °F
Humidity 65%
Rainfall in
Snow Depth Not available.
7:12 AM 6:06 PM
Waxing Crescent, 10% visible
METAR KTRL 110653Z AUTO 18006KT 10SM CLR 10/02 A3005 RMK AO2 SLP174 T01000022
Pressure 30.05 in
Visibility 10.0 miles
Clouds Clear
Windchill 47 °F
Dew Point 38 °F
Humidity 65%
Rainfall in
Snow Depth Not available.
7:12 AM 6:06 PM
Waxing Crescent, 10% visible
METAR KTRL 110653Z AUTO 18006KT 10SM CLR 10/02 A3005 RMK AO2 SLP174 T01000022

10-Day Weather Forecast

Almanac

Astronomy

Feb. 11, 2016 Rise Set
Actual Time
Civil Twilight
Nautical Twilight
Astronomical Twilight
Moon
Length of Visible Light
Length of Day
Tomorrow will be .
, % of the Moon is Illuminated

Today's Extremes

State Highs State Lows

Community

WunderPhotos

Upload Photos

1,892,030 photos uploaded!

WunderBlog® & News

Nearby

Air Quality

  Air Quality AQ Index Pollutant
Not available.

Snow Depth

Station Depth Elevation

Earthquake Activity

City Distance Mag. Time & Date
Minimum magnitude displayed is 2.5.

Coastal Water Temperatures

Place Temperature

Stations

Nearby Weather Stations

Station Location Temp. Windchill Dew Point Humidity Wind Precip. Elev Updated Type
                   

Watches & Warnings

There are currently no watches in effect.